sensor_id;sensor_type;location;lat;lon;timestamp;pressure;altitude;pressure_sealevel;temperature;humidity
21102;BME280;10709;49.006;12.100;2024-02-21T00:00:15;48769.53;;;-146.00;73.71
21102;BME280;10709;49.006;12.100;2024-02-21T00:02:42;48757.78;;;-146.00;73.92
21102;BME280;10709;49.006;12.100;2024-02-21T00:05:08;48738.19;;;-146.00;73.65
21102;BME280;10709;49.006;12.100;2024-02-21T00:07:35;48755.84;;;-146.00;74.34
21102;BME280;10709;49.006;12.100;2024-02-21T00:10:02;48742.13;;;-146.00;74.23
21102;BME280;10709;49.006;12.100;2024-02-21T00:12:29;48753.88;;;-146.00;74.11
21102;BME280;10709;49.006;12.100;2024-02-21T00:14:55;48761.72;;;-146.00;74.31
21102;BME280;10709;49.006;12.100;2024-02-21T00:17:22;48726.44;;;-146.00;74.76
21102;BME280;10709;49.006;12.100;2024-02-21T00:19:49;48734.28;;;-146.00;74.49
21102;BME280;10709;49.006;12.100;2024-02-21T00:22:15;48734.28;;;-146.00;74.59
21102;BME280;10709;49.006;12.100;2024-02-21T00:24:42;48742.13;;;-146.00;74.48
21102;BME280;10709;49.006;12.100;2024-02-21T00:27:09;48746.03;;;-146.00;74.28
21102;BME280;10709;49.006;12.100;2024-02-21T00:29:35;48779.34;;;-146.00;74.48
21102;BME280;10709;49.006;12.100;2024-02-21T00:32:02;48742.13;;;-146.00;74.67
21102;BME280;10709;49.006;12.100;2024-02-21T00:34:29;48738.19;;;-146.00;74.82
21102;BME280;10709;49.006;12.100;2024-02-21T00:36:56;48730.38;;;-146.00;74.88
21102;BME280;10709;49.006;12.100;2024-02-21T00:39:23;48746.03;;;-146.00;75.48
21102;BME280;10709;49.006;12.100;2024-02-21T00:41:50;48769.53;;;-146.00;75.41
21102;BME280;10709;49.006;12.100;2024-02-21T00:44:16;48746.03;;;-146.00;75.35
21102;BME280;10709;49.006;12.100;2024-02-21T00:46:43;48753.88;;;-146.00;75.26
21102;BME280;10709;49.006;12.100;2024-02-21T00:49:09;48746.03;;;-146.00;75.64
21102;BME280;10709;49.006;12.100;2024-02-21T00:51:36;48755.84;;;-146.00;75.16
21102;BME280;10709;49.006;12.100;2024-02-21T00:54:02;48781.31;;;-146.00;75.37
21102;BME280;10709;49.006;12.100;2024-02-21T00:56:29;48746.03;;;-146.00;75.07
21102;BME280;10709;49.006;12.100;2024-02-21T00:58:57;48742.13;;;-146.00;75.04
21102;BME280;10709;49.006;12.100;2024-02-21T01:01:26;48730.38;;;-146.00;75.17
21102;BME280;10709;49.006;12.100;2024-02-21T01:03:53;48753.88;;;-146.00;75.65
21102;BME280;10709;49.006;12.100;2024-02-21T01:06:20;48746.03;;;-146.00;75.72
21102;BME280;10709;49.006;12.100;2024-02-21T01:08:47;48761.72;;;-146.00;75.56
21102;BME280;10709;49.006;12.100;2024-02-21T01:11:15;48761.72;;;-146.00;76.26
21102;BME280;10709;49.006;12.100;2024-02-21T01:13:44;48746.03;;;-146.00;76.72
21102;BME280;10709;49.006;12.100;2024-02-21T01:16:11;48775.41;;;-146.00;76.83
21102;BME280;10709;49.006;12.100;2024-02-21T01:18:38;48761.72;;;-146.00;76.91
21102;BME280;10709;49.006;12.100;2024-02-21T01:21:07;48757.78;;;-146.00;77.29
21102;BME280;10709;49.006;12.100;2024-02-21T01:23:35;48730.38;;;-146.00;77.22
21102;BME280;10709;49.006;12.100;2024-02-21T01:26:03;48757.78;;;-146.00;78.25
21102;BME280;10709;49.006;12.100;2024-02-21T01:28:30;48785.22;;;-146.00;78.64
21102;BME280;10709;49.006;12.100;2024-02-21T01:30:57;48781.31;;;-146.00;78.76
21102;BME280;10709;49.006;12.100;2024-02-21T01:33:24;48746.03;;;-146.00;78.71
21102;BME280;10709;49.006;12.100;2024-02-21T01:35:50;48781.31;;;-146.00;78.79
21102;BME280;10709;49.006;12.100;2024-02-21T01:38:17;48765.63;;;-146.00;78.91
21102;BME280;10709;49.006;12.100;2024-02-21T01:40:43;48781.31;;;-146.00;79.41
21102;BME280;10709;49.006;12.100;2024-02-21T01:43:19;48777.38;;;-146.00;79.68
21102;BME280;10709;49.006;12.100;2024-02-21T01:45:49;48765.63;;;-146.00;79.65
21102;BME280;10709;49.006;12.100;2024-02-21T01:48:19;48765.63;;;-146.00;79.34
21102;BME280;10709;49.006;12.100;2024-02-21T01:50:46;48789.13;;;-146.00;79.27
21102;BME280;10709;49.006;12.100;2024-02-21T01:53:18;48761.72;;;-146.00;79.46
21102;BME280;10709;49.006;12.100;2024-02-21T01:55:46;48781.31;;;-146.00;79.99
21102;BME280;10709;49.006;12.100;2024-02-21T01:58:15;48781.31;;;-146.00;79.88
21102;BME280;10709;49.006;12.100;2024-02-21T02:00:42;48769.53;;;-146.00;80.29
21102;BME280;10709;49.006;12.100;2024-02-21T02:03:10;48757.78;;;-146.00;80.44
21102;BME280;10709;49.006;12.100;2024-02-21T02:05:47;48781.31;;;-146.00;80.33
21102;BME280;10709;49.006;12.100;2024-02-21T02:08:14;48757.78;;;-146.00;81.08
21102;BME280;10709;49.006;12.100;2024-02-21T02:10:42;48781.31;;;-146.00;80.93
21102;BME280;10709;49.006;12.100;2024-02-21T02:13:09;48765.63;;;-146.00;80.67
21102;BME280;10709;49.006;12.100;2024-02-21T02:15:49;48796.97;;;-146.00;81.52
21102;BME280;10709;49.006;12.100;2024-02-21T02:18:17;48789.13;;;-146.00;81.56
21102;BME280;10709;49.006;12.100;2024-02-21T02:20:44;48793.06;;;-146.00;81.38
21102;BME280;10709;49.006;12.100;2024-02-21T02:23:28;48773.47;;;-146.00;81.82
21102;BME280;10709;49.006;12.100;2024-02-21T02:25:55;48785.22;;;-146.00;81.45
21102;BME280;10709;49.006;12.100;2024-02-21T02:28:22;48769.53;;;-146.00;81.46
21102;BME280;10709;49.006;12.100;2024-02-21T02:30:49;48767.59;;;-146.00;81.49
21102;BME280;10709;49.006;12.100;2024-02-21T02:33:17;48793.06;;;-146.00;81.31
21102;BME280;10709;49.006;12.100;2024-02-21T02:35:45;48804.81;;;-146.00;81.41
21102;BME280;10709;49.006;12.100;2024-02-21T02:38:11;48789.13;;;-146.00;81.28
21102;BME280;10709;49.006;12.100;2024-02-21T02:40:40;48779.34;;;-146.00;81.10
21102;BME280;10709;49.006;12.100;2024-02-21T02:43:07;48785.22;;;-146.00;81.21
21102;BME280;10709;49.006;12.100;2024-02-21T02:45:36;48798.94;;;-146.00;81.06
21102;BME280;10709;49.006;12.100;2024-02-21T02:48:02;48775.41;;;-146.00;81.23
21102;BME280;10709;49.006;12.100;2024-02-21T02:50:30;48789.13;;;-146.00;81.16
21102;BME280;10709;49.006;12.100;2024-02-21T02:52:56;48796.97;;;-146.00;81.08
21102;BME280;10709;49.006;12.100;2024-02-21T02:55:23;48796.97;;;-146.00;80.81
21102;BME280;10709;49.006;12.100;2024-02-21T02:57:50;48781.31;;;-146.00;80.40
21102;BME280;10709;49.006;12.100;2024-02-21T03:00:18;48796.97;;;-146.00;80.50
21102;BME280;10709;49.006;12.100;2024-02-21T03:02:46;48812.63;;;-146.00;80.54
21102;BME280;10709;49.006;12.100;2024-02-21T03:05:19;48777.38;;;-146.00;80.49
21102;BME280;10709;49.006;12.100;2024-02-21T03:07:47;48800.88;;;-146.00;80.69
21102;BME280;10709;49.006;12.100;2024-02-21T03:10:14;48765.63;;;-146.00;80.71
21102;BME280;10709;49.006;12.100;2024-02-21T03:12:43;48777.38;;;-146.00;81.01
21102;BME280;10709;49.006;12.100;2024-02-21T03:15:13;48781.31;;;-146.00;80.97
21102;BME280;10709;49.006;12.100;2024-02-21T03:17:42;48785.22;;;-146.00;80.80
21102;BME280;10709;49.006;12.100;2024-02-21T03:20:09;48785.22;;;-146.00;80.73
21102;BME280;10709;49.006;12.100;2024-02-21T03:22:38;48787.19;;;-146.00;81.09
21102;BME280;10709;49.006;12.100;2024-02-21T03:25:06;48796.97;;;-146.00;80.95
21102;BME280;10709;49.006;12.100;2024-02-21T03:27:33;48783.25;;;-146.00;81.34
21102;BME280;10709;49.006;12.100;2024-02-21T03:30:00;48824.41;;;-146.00;81.17
21102;BME280;10709;49.006;12.100;2024-02-21T03:32:27;48785.22;;;-146.00;81.04
21102;BME280;10709;49.006;12.100;2024-02-21T03:34:55;48804.81;;;-146.00;80.85
21102;BME280;10709;49.006;12.100;2024-02-21T03:37:22;48798.94;;;-146.00;81.11
21102;BME280;10709;49.006;12.100;2024-02-21T03:39:52;48812.63;;;-146.00;81.18
21102;BME280;10709;49.006;12.100;2024-02-21T03:42:19;48820.47;;;-146.00;81.07
21102;BME280;10709;49.006;12.100;2024-02-21T03:44:45;48777.38;;;-146.00;80.88
21102;BME280;10709;49.006;12.100;2024-02-21T03:47:12;48789.13;;;-146.00;80.96
21102;BME280;10709;49.006;12.100;2024-02-21T03:49:41;48804.81;;;-146.00;80.97
21102;BME280;10709;49.006;12.100;2024-02-21T03:52:09;48781.31;;;-146.00;80.88
21102;BME280;10709;49.006;12.100;2024-02-21T03:54:37;48793.06;;;-146.00;81.32
21102;BME280;10709;49.006;12.100;2024-02-21T03:57:06;48800.88;;;-146.00;80.88
21102;BME280;10709;49.006;12.100;2024-02-21T03:59:33;48800.88;;;-146.00;80.58
21102;BME280;10709;49.006;12.100;2024-02-21T04:01:59;48785.22;;;-146.00;81.62
21102;BME280;10709;49.006;12.100;2024-02-21T04:04:29;48798.94;;;-146.00;80.84
21102;BME280;10709;49.006;12.100;2024-02-21T04:06:55;48798.94;;;-146.00;80.88
21102;BME280;10709;49.006;12.100;2024-02-21T04:09:22;48808.72;;;-146.00;80.96
21102;BME280;10709;49.006;12.100;2024-02-21T04:11:48;48808.72;;;-146.00;80.83
21102;BME280;10709;49.006;12.100;2024-02-21T04:14:15;48793.06;;;-146.00;81.02
21102;BME280;10709;49.006;12.100;2024-02-21T04:16:44;48812.63;;;-146.00;80.96
21102;BME280;10709;49.006;12.100;2024-02-21T04:19:12;48804.81;;;-146.00;80.71
21102;BME280;10709;49.006;12.100;2024-02-21T04:21:43;48781.31;;;-146.00;80.33
21102;BME280;10709;49.006;12.100;2024-02-21T04:24:12;48793.06;;;-146.00;81.06
21102;BME280;10709;49.006;12.100;2024-02-21T04:26:39;48789.13;;;-146.00;81.10
21102;BME280;10709;49.006;12.100;2024-02-21T04:29:06;48796.97;;;-146.00;81.20
21102;BME280;10709;49.006;12.100;2024-02-21T04:31:32;48812.63;;;-146.00;80.71
21102;BME280;10709;49.006;12.100;2024-02-21T04:33:59;48796.97;;;-146.00;81.15
21102;BME280;10709;49.006;12.100;2024-02-21T04:36:28;48800.88;;;-146.00;80.90
21102;BME280;10709;49.006;12.100;2024-02-21T04:38:55;48795.00;;;-146.00;80.96
21102;BME280;10709;49.006;12.100;2024-02-21T04:41:21;48765.63;;;-146.00;81.20
21102;BME280;10709;49.006;12.100;2024-02-21T04:43:48;48793.06;;;-146.00;80.60
21102;BME280;10709;49.006;12.100;2024-02-21T04:46:15;48812.63;;;-146.00;80.52
21102;BME280;10709;49.006;12.100;2024-02-21T04:48:42;48759.75;;;-146.00;80.66
21102;BME280;10709;49.006;12.100;2024-02-21T04:51:09;48777.38;;;-146.00;80.58
21102;BME280;10709;49.006;12.100;2024-02-21T04:53:36;48789.13;;;-146.00;80.61
21102;BME280;10709;49.006;12.100;2024-02-21T04:56:03;48789.13;;;-146.00;80.31
21102;BME280;10709;49.006;12.100;2024-02-21T04:58:30;48810.69;;;-146.00;80.13
21102;BME280;10709;49.006;12.100;2024-02-21T05:00:57;48789.13;;;-146.00;80.75
21102;BME280;10709;49.006;12.100;2024-02-21T05:03:26;48773.47;;;-146.00;80.47
21102;BME280;10709;49.006;12.100;2024-02-21T05:05:53;48789.13;;;-146.00;80.94
21102;BME280;10709;49.006;12.100;2024-02-21T05:08:20;48812.63;;;-146.00;81.08
21102;BME280;10709;49.006;12.100;2024-02-21T05:10:46;48769.53;;;-146.00;80.52
21102;BME280;10709;49.006;12.100;2024-02-21T05:13:13;48783.25;;;-146.00;80.10
21102;BME280;10709;49.006;12.100;2024-02-21T05:15:40;48777.38;;;-146.00;79.85
21102;BME280;10709;49.006;12.100;2024-02-21T05:18:08;48761.72;;;-146.00;80.21
21102;BME280;10709;49.006;12.100;2024-02-21T05:20:35;48787.19;;;-146.00;79.82
21102;BME280;10709;49.006;12.100;2024-02-21T05:23:02;48804.81;;;-146.00;80.01
21102;BME280;10709;49.006;12.100;2024-02-21T05:25:29;48787.19;;;-146.00;80.57
21102;BME280;10709;49.006;12.100;2024-02-21T05:27:57;48785.22;;;-146.00;80.56
21102;BME280;10709;49.006;12.100;2024-02-21T05:30:28;48816.56;;;-146.00;80.39
21102;BME280;10709;49.006;12.100;2024-02-21T05:32:54;48785.22;;;-146.00;80.52
21102;BME280;10709;49.006;12.100;2024-02-21T05:35:27;48800.88;;;-146.00;80.62
21102;BME280;10709;49.006;12.100;2024-02-21T05:37:54;48781.31;;;-146.00;79.91
21102;BME280;10709;49.006;12.100;2024-02-21T05:40:20;48783.25;;;-146.00;80.17
21102;BME280;10709;49.006;12.100;2024-02-21T05:42:47;48800.88;;;-146.00;80.66
21102;BME280;10709;49.006;12.100;2024-02-21T05:45:14;48800.88;;;-146.00;80.55
21102;BME280;10709;49.006;12.100;2024-02-21T05:47:41;48800.88;;;-146.00;80.41
21102;BME280;10709;49.006;12.100;2024-02-21T05:50:09;48796.97;;;-146.00;80.88
21102;BME280;10709;49.006;12.100;2024-02-21T05:52:36;48812.63;;;-146.00;81.10
21102;BME280;10709;49.006;12.100;2024-02-21T05:55:06;48793.06;;;-146.00;80.82
21102;BME280;10709;49.006;12.100;2024-02-21T05:57:33;48824.41;;;-146.00;80.91
21102;BME280;10709;49.006;12.100;2024-02-21T06:00:00;48785.22;;;-146.00;81.68
21102;BME280;10709;49.006;12.100;2024-02-21T06:02:27;48808.72;;;-146.00;81.59
21102;BME280;10709;49.006;12.100;2024-02-21T06:04:53;48775.41;;;-146.00;81.06
21102;BME280;10709;49.006;12.100;2024-02-21T06:07:20;48796.97;;;-146.00;81.05
21102;BME280;10709;49.006;12.100;2024-02-21T06:09:48;48800.88;;;-146.00;81.01
21102;BME280;10709;49.006;12.100;2024-02-21T06:12:15;48804.81;;;-146.00;81.11
21102;BME280;10709;49.006;12.100;2024-02-21T06:14:42;48789.13;;;-146.00;81.13
21102;BME280;10709;49.006;12.100;2024-02-21T06:17:11;48800.88;;;-146.00;81.38
21102;BME280;10709;49.006;12.100;2024-02-21T06:19:40;48785.22;;;-146.00;80.92
21102;BME280;10709;49.006;12.100;2024-02-21T06:22:08;48804.81;;;-146.00;81.01
21102;BME280;10709;49.006;12.100;2024-02-21T06:24:35;48812.63;;;-146.00;81.00
21102;BME280;10709;49.006;12.100;2024-02-21T06:27:05;48773.47;;;-146.00;81.17
21102;BME280;10709;49.006;12.100;2024-02-21T06:29:36;48785.22;;;-146.00;80.88
21102;BME280;10709;49.006;12.100;2024-02-21T06:32:03;48781.31;;;-146.00;81.00
21102;BME280;10709;49.006;12.100;2024-02-21T06:34:31;48783.25;;;-146.00;80.72
21102;BME280;10709;49.006;12.100;2024-02-21T06:37:00;48773.47;;;-146.00;80.56
21102;BME280;10709;49.006;12.100;2024-02-21T06:39:27;48761.72;;;-146.00;80.51
21102;BME280;10709;49.006;12.100;2024-02-21T06:41:55;48789.13;;;-146.00;80.61
21102;BME280;10709;49.006;12.100;2024-02-21T06:44:27;48796.97;;;-146.00;80.35
21102;BME280;10709;49.006;12.100;2024-02-21T06:46:54;48789.13;;;-146.00;80.60
21102;BME280;10709;49.006;12.100;2024-02-21T06:49:23;48769.53;;;-146.00;80.74
21102;BME280;10709;49.006;12.100;2024-02-21T06:51:52;48769.53;;;-146.00;80.30
21102;BME280;10709;49.006;12.100;2024-02-21T06:54:18;48802.84;;;-146.00;80.50
21102;BME280;10709;49.006;12.100;2024-02-21T06:56:45;48789.13;;;-146.00;81.00
21102;BME280;10709;49.006;12.100;2024-02-21T06:59:11;48757.78;;;-146.00;80.71
21102;BME280;10709;49.006;12.100;2024-02-21T07:01:49;48777.38;;;-146.00;80.50
21102;BME280;10709;49.006;12.100;2024-02-21T07:04:16;48791.09;;;-146.00;79.95
21102;BME280;10709;49.006;12.100;2024-02-21T07:06:42;48796.97;;;-146.00;80.04
21102;BME280;10709;49.006;12.100;2024-02-21T07:09:09;48796.97;;;-146.00;80.19
21102;BME280;10709;49.006;12.100;2024-02-21T07:11:35;48789.13;;;-146.00;79.72
21102;BME280;10709;49.006;12.100;2024-02-21T07:14:02;48808.72;;;-146.00;79.56
21102;BME280;10709;49.006;12.100;2024-02-21T07:16:29;48751.91;;;-146.00;79.62
21102;BME280;10709;49.006;12.100;2024-02-21T07:18:56;48777.38;;;-146.00;79.54
21102;BME280;10709;49.006;12.100;2024-02-21T07:21:22;48777.38;;;-146.00;79.73
21102;BME280;10709;49.006;12.100;2024-02-21T07:23:49;48765.63;;;-146.00;79.96
21102;BME280;10709;49.006;12.100;2024-02-21T07:26:15;48789.13;;;-146.00;80.37
21102;BME280;10709;49.006;12.100;2024-02-21T07:28:42;48779.34;;;-146.00;80.45
21102;BME280;10709;49.006;12.100;2024-02-21T07:31:10;48777.38;;;-146.00;80.34
21102;BME280;10709;49.006;12.100;2024-02-21T07:33:37;48777.38;;;-146.00;80.29
21102;BME280;10709;49.006;12.100;2024-02-21T07:36:07;48775.41;;;-146.00;79.96
21102;BME280;10709;49.006;12.100;2024-02-21T07:38:34;48783.25;;;-146.00;80.09
21102;BME280;10709;49.006;12.100;2024-02-21T07:41:01;48757.78;;;-146.00;79.52
21102;BME280;10709;49.006;12.100;2024-02-21T07:43:27;48808.72;;;-146.00;79.87
21102;BME280;10709;49.006;12.100;2024-02-21T07:45:56;48796.97;;;-146.00;80.11
21102;BME280;10709;49.006;12.100;2024-02-21T07:48:22;48783.25;;;-146.00;79.42
21102;BME280;10709;49.006;12.100;2024-02-21T07:50:53;48783.25;;;-146.00;79.58
21102;BME280;10709;49.006;12.100;2024-02-21T07:53:20;48795.00;;;-146.00;78.87
21102;BME280;10709;49.006;12.100;2024-02-21T07:55:46;48796.97;;;-146.00;78.84
21102;BME280;10709;49.006;12.100;2024-02-21T07:58:13;48779.34;;;-146.00;79.29
21102;BME280;10709;49.006;12.100;2024-02-21T08:00:39;48804.81;;;-146.00;79.29
21102;BME280;10709;49.006;12.100;2024-02-21T08:03:06;48771.50;;;-146.00;79.67
21102;BME280;10709;49.006;12.100;2024-02-21T08:05:36;48765.63;;;-146.00;78.99
21102;BME280;10709;49.006;12.100;2024-02-21T08:08:06;48789.13;;;-146.00;78.85
21102;BME280;10709;49.006;12.100;2024-02-21T08:10:34;48812.63;;;-146.00;79.34
21102;BME280;10709;49.006;12.100;2024-02-21T08:13:01;48789.13;;;-146.00;78.63
21102;BME280;10709;49.006;12.100;2024-02-21T08:15:28;48761.72;;;-146.00;78.36
21102;BME280;10709;49.006;12.100;2024-02-21T08:18:00;48773.47;;;-146.00;78.94
21102;BME280;10709;49.006;12.100;2024-02-21T08:20:28;48804.81;;;-146.00;78.64
21102;BME280;10709;49.006;12.100;2024-02-21T08:22:55;48810.69;;;-146.00;78.45
21102;BME280;10709;49.006;12.100;2024-02-21T08:25:22;48808.72;;;-146.00;78.56
21102;BME280;10709;49.006;12.100;2024-02-21T08:27:48;48793.06;;;-146.00;78.20
21102;BME280;10709;49.006;12.100;2024-02-21T08:30:15;48779.34;;;-146.00;77.86
21102;BME280;10709;49.006;12.100;2024-02-21T08:32:42;48789.13;;;-146.00;78.23
21102;BME280;10709;49.006;12.100;2024-02-21T08:35:08;48746.03;;;-146.00;77.27
21102;BME280;10709;49.006;12.100;2024-02-21T08:37:35;48773.47;;;-146.00;77.15
21102;BME280;10709;49.006;12.100;2024-02-21T08:40:02;48789.13;;;-146.00;77.24
21102;BME280;10709;49.006;12.100;2024-02-21T08:42:40;48793.06;;;-146.00;77.09
21102;BME280;10709;49.006;12.100;2024-02-21T08:45:08;48757.78;;;-146.00;77.90
21102;BME280;10709;49.006;12.100;2024-02-21T08:47:34;48773.47;;;-146.00;77.90
21102;BME280;10709;49.006;12.100;2024-02-21T08:50:04;48789.13;;;-146.00;77.52
21102;BME280;10709;49.006;12.100;2024-02-21T08:52:44;48796.97;;;-146.00;77.53
21102;BME280;10709;49.006;12.100;2024-02-21T08:55:10;48785.22;;;-146.00;77.26
21102;BME280;10709;49.006;12.100;2024-02-21T08:57:38;48757.78;;;-146.00;77.11
21102;BME280;10709;49.006;12.100;2024-02-21T09:00:05;48769.53;;;-146.00;77.30
21102;BME280;10709;49.006;12.100;2024-02-21T09:02:40;48808.72;;;-146.00;77.82
21102;BME280;10709;49.006;12.100;2024-02-21T09:05:07;48753.88;;;-146.00;77.92
21102;BME280;10709;49.006;12.100;2024-02-21T09:07:34;48802.84;;;-146.00;77.98
21102;BME280;10709;49.006;12.100;2024-02-21T09:10:00;48773.47;;;-146.00;78.60
21102;BME280;10709;49.006;12.100;2024-02-21T09:12:27;48771.50;;;-146.00;78.16
21102;BME280;10709;49.006;12.100;2024-02-21T09:14:54;48785.22;;;-146.00;78.50
21102;BME280;10709;49.006;12.100;2024-02-21T09:17:20;48828.31;;;-146.00;78.59
21102;BME280;10709;49.006;12.100;2024-02-21T09:19:47;48791.09;;;-146.00;76.99
21102;BME280;10709;49.006;12.100;2024-02-21T09:22:14;48759.75;;;-146.00;77.34
21102;BME280;10709;49.006;12.100;2024-02-21T09:24:41;48777.38;;;-146.00;76.91
21102;BME280;10709;49.006;12.100;2024-02-21T09:27:07;48773.47;;;-146.00;77.55
21102;BME280;10709;49.006;12.100;2024-02-21T09:29:35;48773.47;;;-146.00;76.73
21102;BME280;10709;49.006;12.100;2024-02-21T09:32:02;48781.31;;;-146.00;76.95
21102;BME280;10709;49.006;12.100;2024-02-21T09:34:29;48769.53;;;-146.00;75.39
21102;BME280;10709;49.006;12.100;2024-02-21T09:36:57;48802.84;;;-146.00;76.15
21102;BME280;10709;49.006;12.100;2024-02-21T09:39:23;48804.81;;;-146.00;76.52
21102;BME280;10709;49.006;12.100;2024-02-21T09:41:53;48773.47;;;-146.00;76.72
21102;BME280;10709;49.006;12.100;2024-02-21T09:44:24;48796.97;;;-146.00;75.61
21102;BME280;10709;49.006;12.100;2024-02-21T09:47:02;48777.38;;;-146.00;75.57
21102;BME280;10709;49.006;12.100;2024-02-21T09:49:33;48779.34;;;-146.00;75.28
21102;BME280;10709;49.006;12.100;2024-02-21T09:52:02;48789.13;;;-146.00;74.63
21102;BME280;10709;49.006;12.100;2024-02-21T09:54:35;48796.97;;;-146.00;75.04
21102;BME280;10709;49.006;12.100;2024-02-21T09:57:04;48796.97;;;-146.00;76.34
21102;BME280;10709;49.006;12.100;2024-02-21T09:59:33;48800.88;;;-146.00;75.94
21102;BME280;10709;49.006;12.100;2024-02-21T10:01:59;48769.53;;;-146.00;75.61
21102;BME280;10709;49.006;12.100;2024-02-21T10:04:33;48781.31;;;-146.00;74.75
21102;BME280;10709;49.006;12.100;2024-02-21T10:07:00;48781.31;;;-146.00;73.42
21102;BME280;10709;49.006;12.100;2024-02-21T10:09:29;48763.66;;;-146.00;74.52
21102;BME280;10709;49.006;12.100;2024-02-21T10:12:08;48773.47;;;-146.00;74.63
21102;BME280;10709;49.006;12.100;2024-02-21T10:14:37;48785.22;;;-146.00;75.03
21102;BME280;10709;49.006;12.100;2024-02-21T10:17:04;48793.06;;;-146.00;75.47
21102;BME280;10709;49.006;12.100;2024-02-21T10:19:36;48789.13;;;-146.00;74.00
21102;BME280;10709;49.006;12.100;2024-02-21T10:22:05;48783.25;;;-146.00;74.34
21102;BME280;10709;49.006;12.100;2024-02-21T10:24:35;48789.13;;;-146.00;74.08
21102;BME280;10709;49.006;12.100;2024-02-21T10:27:06;48804.81;;;-146.00;73.99
21102;BME280;10709;49.006;12.100;2024-02-21T10:29:35;48773.47;;;-146.00;73.77
21102;BME280;10709;49.006;12.100;2024-02-21T10:32:05;48783.25;;;-146.00;74.06
21102;BME280;10709;49.006;12.100;2024-02-21T10:34:33;48779.34;;;-146.00;72.79
21102;BME280;10709;49.006;12.100;2024-02-21T10:37:10;48785.22;;;-146.00;71.95
21102;BME280;10709;49.006;12.100;2024-02-21T10:39:38;48804.81;;;-146.00;72.74
21102;BME280;10709;49.006;12.100;2024-02-21T10:42:06;48796.97;;;-146.00;72.88
21102;BME280;10709;49.006;12.100;2024-02-21T10:44:37;48773.47;;;-146.00;71.82
21102;BME280;10709;49.006;12.100;2024-02-21T10:47:12;48753.88;;;-146.00;72.52
21102;BME280;10709;49.006;12.100;2024-02-21T10:49:44;48769.53;;;-146.00;73.28
21102;BME280;10709;49.006;12.100;2024-02-21T10:52:29;48796.97;;;-146.00;71.81
21102;BME280;10709;49.006;12.100;2024-02-21T10:55:10;48763.66;;;-146.00;71.51
21102;BME280;10709;49.006;12.100;2024-02-21T10:57:39;48781.31;;;-146.00;71.97
21102;BME280;10709;49.006;12.100;2024-02-21T11:00:07;48773.47;;;-146.00;71.69
21102;BME280;10709;49.006;12.100;2024-02-21T11:02:36;48796.97;;;-146.00;71.90
21102;BME280;10709;49.006;12.100;2024-02-21T11:05:04;48753.88;;;-146.00;70.90
21102;BME280;10709;49.006;12.100;2024-02-21T11:07:31;48765.63;;;-146.00;70.19
21102;BME280;10709;49.006;12.100;2024-02-21T11:09:59;48789.13;;;-146.00;71.12
21102;BME280;10709;49.006;12.100;2024-02-21T11:12:26;48753.88;;;-146.00;70.44
21102;BME280;10709;49.006;12.100;2024-02-21T11:15:04;48806.75;;;-146.00;69.88
21102;BME280;10709;49.006;12.100;2024-02-21T11:17:34;48771.50;;;-146.00;69.73
21102;BME280;10709;49.006;12.100;2024-02-21T11:20:15;48765.63;;;-146.00;69.97
21102;BME280;10709;49.006;12.100;2024-02-21T11:22:42;48765.63;;;-146.00;69.39
21102;BME280;10709;49.006;12.100;2024-02-21T11:25:09;48765.63;;;-146.00;69.58
21102;BME280;10709;49.006;12.100;2024-02-21T11:27:38;48765.63;;;-146.00;69.44
21102;BME280;10709;49.006;12.100;2024-02-21T11:30:05;48765.63;;;-146.00;68.34
21102;BME280;10709;49.006;12.100;2024-02-21T11:32:33;48781.31;;;-146.00;68.88
21102;BME280;10709;49.006;12.100;2024-02-21T11:35:00;48742.13;;;-146.00;68.58
21102;BME280;10709;49.006;12.100;2024-02-21T11:37:35;48804.81;;;-146.00;67.69
21102;BME280;10709;49.006;12.100;2024-02-21T11:40:06;48777.38;;;-146.00;67.84
21102;BME280;10709;49.006;12.100;2024-02-21T11:42:37;48761.72;;;-146.00;66.75
21102;BME280;10709;49.006;12.100;2024-02-21T11:45:04;48755.84;;;-146.00;66.45
21102;BME280;10709;49.006;12.100;2024-02-21T11:47:31;48769.53;;;-146.00;65.43
21102;BME280;10709;49.006;12.100;2024-02-21T11:49:59;48746.03;;;-146.00;63.56
21102;BME280;10709;49.006;12.100;2024-02-21T11:52:26;48773.47;;;-146.00;63.17
21102;BME280;10709;49.006;12.100;2024-02-21T11:54:54;48771.50;;;-146.00;63.55
21102;BME280;10709;49.006;12.100;2024-02-21T11:57:23;48765.63;;;-146.00;63.14
21102;BME280;10709;49.006;12.100;2024-02-21T11:59:51;48744.06;;;-146.00;63.34
21102;BME280;10709;49.006;12.100;2024-02-21T12:02:26;48744.06;;;-146.00;63.62
21102;BME280;10709;49.006;12.100;2024-02-21T12:04:52;48746.03;;;-146.00;64.67
21102;BME280;10709;49.006;12.100;2024-02-21T12:07:21;48789.13;;;-146.00;64.44
21102;BME280;10709;49.006;12.100;2024-02-21T12:09:51;48732.31;;;-146.00;62.27
21102;BME280;10709;49.006;12.100;2024-02-21T12:12:19;48765.63;;;-146.00;62.89
21102;BME280;10709;49.006;12.100;2024-02-21T12:14:55;48765.63;;;-146.00;62.43
21102;BME280;10709;49.006;12.100;2024-02-21T12:17:24;48742.13;;;-146.00;61.72
21102;BME280;10709;49.006;12.100;2024-02-21T12:19:51;48738.19;;;-146.00;61.72
21102;BME280;10709;49.006;12.100;2024-02-21T12:22:18;48736.25;;;-146.00;61.32
21102;BME280;10709;49.006;12.100;2024-02-21T12:24:46;48722.53;;;-146.00;60.86
21102;BME280;10709;49.006;12.100;2024-02-21T12:27:14;48742.13;;;-146.00;61.63
21102;BME280;10709;49.006;12.100;2024-02-21T12:29:42;48765.63;;;-146.00;61.96
21102;BME280;10709;49.006;12.100;2024-02-21T12:32:09;48769.53;;;-146.00;60.57
21102;BME280;10709;49.006;12.100;2024-02-21T12:34:36;48746.03;;;-146.00;60.58